sensor_id;sensor_type;location;lat;lon;timestamp;P1;durP1;ratioP1;P2;durP2;ratioP2
36423;SDS011;22458;45.328;9.514;2023-02-01T00:01:57;36.10;;;20.55;;
36423;SDS011;22458;45.328;9.514;2023-02-01T00:04:23;31.80;;;20.55;;
36423;SDS011;22458;45.328;9.514;2023-02-01T00:06:49;35.53;;;23.13;;
36423;SDS011;22458;45.328;9.514;2023-02-01T00:09:14;36.58;;;22.60;;
36423;SDS011;22458;45.328;9.514;2023-02-01T00:11:40;36.08;;;22.02;;
36423;SDS011;22458;45.328;9.514;2023-02-01T00:14:06;33.90;;;21.48;;
36423;SDS011;22458;45.328;9.514;2023-02-01T00:16:33;35.42;;;21.20;;
36423;SDS011;22458;45.328;9.514;2023-02-01T00:19:03;35.72;;;22.35;;
36423;SDS011;22458;45.328;9.514;2023-02-01T00:21:31;33.50;;;22.27;;
36423;SDS011;22458;45.328;9.514;2023-02-01T00:23:57;34.47;;;21.58;;
36423;SDS011;22458;45.328;9.514;2023-02-01T00:26:33;34.83;;;22.52;;
36423;SDS011;22458;45.328;9.514;2023-02-01T00:29:06;31.30;;;20.67;;
36423;SDS011;22458;45.328;9.514;2023-02-01T00:31:35;33.25;;;20.80;;
36423;SDS011;22458;45.328;9.514;2023-02-01T00:34:01;35.83;;;22.23;;
36423;SDS011;22458;45.328;9.514;2023-02-01T00:36:27;33.65;;;21.90;;
36423;SDS011;22458;45.328;9.514;2023-02-01T00:38:54;33.65;;;21.02;;
36423;SDS011;22458;45.328;9.514;2023-02-01T00:41:20;38.20;;;22.70;;
36423;SDS011;22458;45.328;9.514;2023-02-01T00:43:47;35.60;;;21.80;;
36423;SDS011;22458;45.328;9.514;2023-02-01T00:46:14;31.50;;;20.90;;
36423;SDS011;22458;45.328;9.514;2023-02-01T00:48:41;35.47;;;22.73;;
36423;SDS011;22458;45.328;9.514;2023-02-01T00:51:17;37.10;;;23.20;;
36423;SDS011;22458;45.328;9.514;2023-02-01T00:53:45;33.33;;;21.25;;
36423;SDS011;22458;45.328;9.514;2023-02-01T00:56:11;33.10;;;20.77;;
36423;SDS011;22458;45.328;9.514;2023-02-01T00:58:37;34.42;;;21.80;;
36423;SDS011;22458;45.328;9.514;2023-02-01T01:03:30;36.80;;;21.30;;
36423;SDS011;22458;45.328;9.514;2023-02-01T01:06:00;33.25;;;22.27;;
36423;SDS011;22458;45.328;9.514;2023-02-01T01:08:28;34.78;;;22.08;;
36423;SDS011;22458;45.328;9.514;2023-02-01T01:10:54;36.33;;;21.88;;
36423;SDS011;22458;45.328;9.514;2023-02-01T01:13:19;37.00;;;22.52;;
36423;SDS011;22458;45.328;9.514;2023-02-01T01:15:45;38.42;;;22.65;;
36423;SDS011;22458;45.328;9.514;2023-02-01T01:18:11;33.75;;;21.75;;
36423;SDS011;22458;45.328;9.514;2023-02-01T01:20:38;33.88;;;21.73;;
36423;SDS011;22458;45.328;9.514;2023-02-01T01:23:05;33.33;;;22.30;;
36423;SDS011;22458;45.328;9.514;2023-02-01T01:25:32;35.38;;;22.10;;
36423;SDS011;22458;45.328;9.514;2023-02-01T01:28:01;37.20;;;24.25;;
36423;SDS011;22458;45.328;9.514;2023-02-01T01:30:27;35.90;;;22.10;;
36423;SDS011;22458;45.328;9.514;2023-02-01T01:32:53;36.50;;;22.15;;
36423;SDS011;22458;45.328;9.514;2023-02-01T01:35:18;34.47;;;21.60;;
36423;SDS011;22458;45.328;9.514;2023-02-01T01:37:44;35.88;;;22.48;;
36423;SDS011;22458;45.328;9.514;2023-02-01T01:40:10;33.25;;;20.35;;
36423;SDS011;22458;45.328;9.514;2023-02-01T01:42:39;37.28;;;22.60;;
36423;SDS011;22458;45.328;9.514;2023-02-01T01:47:58;36.97;;;21.55;;
36423;SDS011;22458;45.328;9.514;2023-02-01T01:51:00;35.70;;;22.70;;
36423;SDS011;22458;45.328;9.514;2023-02-01T01:53:31;31.67;;;19.85;;
36423;SDS011;22458;45.328;9.514;2023-02-01T01:56:02;34.65;;;21.40;;
36423;SDS011;22458;45.328;9.514;2023-02-01T01:58:29;37.13;;;22.02;;
36423;SDS011;22458;45.328;9.514;2023-02-01T02:00:57;33.15;;;21.30;;
36423;SDS011;22458;45.328;9.514;2023-02-01T02:03:33;33.85;;;20.80;;
36423;SDS011;22458;45.328;9.514;2023-02-01T02:08:29;34.88;;;21.50;;
36423;SDS011;22458;45.328;9.514;2023-02-01T02:10:55;32.25;;;20.70;;
36423;SDS011;22458;45.328;9.514;2023-02-01T02:13:34;32.17;;;20.63;;
36423;SDS011;22458;45.328;9.514;2023-02-01T02:16:13;32.88;;;20.90;;
36423;SDS011;22458;45.328;9.514;2023-02-01T02:18:52;32.90;;;20.23;;
36423;SDS011;22458;45.328;9.514;2023-02-01T02:35:56;35.28;;;21.30;;
36423;SDS011;22458;45.328;9.514;2023-02-01T02:41:19;35.53;;;21.73;;
36423;SDS011;22458;45.328;9.514;2023-02-01T02:53:11;34.38;;;21.27;;
36423;SDS011;22458;45.328;9.514;2023-02-01T02:55:59;34.28;;;22.52;;
36423;SDS011;22458;45.328;9.514;2023-02-01T02:58:46;33.17;;;21.48;;
36423;SDS011;22458;45.328;9.514;2023-02-01T03:01:31;35.70;;;21.65;;
36423;SDS011;22458;45.328;9.514;2023-02-01T03:04:16;32.03;;;20.45;;
36423;SDS011;22458;45.328;9.514;2023-02-01T03:06:47;32.58;;;20.50;;
36423;SDS011;22458;45.328;9.514;2023-02-01T03:09:14;32.28;;;22.15;;
36423;SDS011;22458;45.328;9.514;2023-02-01T03:11:49;31.83;;;21.73;;
36423;SDS011;22458;45.328;9.514;2023-02-01T03:14:38;33.65;;;20.35;;
36423;SDS011;22458;45.328;9.514;2023-02-01T03:17:11;28.98;;;20.10;;
36423;SDS011;22458;45.328;9.514;2023-02-01T03:19:42;34.38;;;21.60;;
36423;SDS011;22458;45.328;9.514;2023-02-01T03:22:15;33.40;;;20.63;;
36423;SDS011;22458;45.328;9.514;2023-02-01T03:24:56;32.45;;;19.52;;
36423;SDS011;22458;45.328;9.514;2023-02-01T03:27:35;29.40;;;19.38;;
36423;SDS011;22458;45.328;9.514;2023-02-01T03:33:06;29.45;;;20.08;;
36423;SDS011;22458;45.328;9.514;2023-02-01T03:35:55;37.33;;;22.58;;
36423;SDS011;22458;45.328;9.514;2023-02-01T03:43:49;32.55;;;20.23;;
36423;SDS011;22458;45.328;9.514;2023-02-01T03:48:59;35.83;;;21.90;;
36423;SDS011;22458;45.328;9.514;2023-02-01T03:51:28;35.47;;;22.38;;
36423;SDS011;22458;45.328;9.514;2023-02-01T03:53:56;35.58;;;22.83;;
36423;SDS011;22458;45.328;9.514;2023-02-01T03:56:23;37.75;;;24.23;;
36423;SDS011;22458;45.328;9.514;2023-02-01T03:58:52;31.45;;;21.83;;
36423;SDS011;22458;45.328;9.514;2023-02-01T04:01:27;33.72;;;23.10;;
36423;SDS011;22458;45.328;9.514;2023-02-01T04:03:54;34.15;;;22.42;;
36423;SDS011;22458;45.328;9.514;2023-02-01T04:06:21;32.92;;;21.52;;
36423;SDS011;22458;45.328;9.514;2023-02-01T04:08:47;37.63;;;23.05;;
36423;SDS011;22458;45.328;9.514;2023-02-01T04:11:13;32.83;;;20.42;;
36423;SDS011;22458;45.328;9.514;2023-02-01T04:13:39;32.17;;;19.70;;
36423;SDS011;22458;45.328;9.514;2023-02-01T04:16:04;36.13;;;21.63;;
36423;SDS011;22458;45.328;9.514;2023-02-01T04:18:30;33.08;;;21.35;;
36423;SDS011;22458;45.328;9.514;2023-02-01T04:20:56;32.75;;;20.65;;
36423;SDS011;22458;45.328;9.514;2023-02-01T04:23:22;34.50;;;22.90;;
36423;SDS011;22458;45.328;9.514;2023-02-01T04:25:48;35.15;;;22.23;;
36423;SDS011;22458;45.328;9.514;2023-02-01T04:28:15;32.83;;;22.05;;
36423;SDS011;22458;45.328;9.514;2023-02-01T04:30:40;34.83;;;21.85;;
36423;SDS011;22458;45.328;9.514;2023-02-01T04:33:06;34.15;;;20.65;;
36423;SDS011;22458;45.328;9.514;2023-02-01T04:35:32;35.55;;;21.45;;
36423;SDS011;22458;45.328;9.514;2023-02-01T04:37:58;34.70;;;21.88;;
36423;SDS011;22458;45.328;9.514;2023-02-01T04:40:24;29.92;;;21.08;;
36423;SDS011;22458;45.328;9.514;2023-02-01T04:42:50;32.47;;;21.15;;
36423;SDS011;22458;45.328;9.514;2023-02-01T04:45:16;31.88;;;20.15;;
36423;SDS011;22458;45.328;9.514;2023-02-01T04:47:42;34.45;;;21.92;;
36423;SDS011;22458;45.328;9.514;2023-02-01T04:50:08;33.33;;;21.58;;
36423;SDS011;22458;45.328;9.514;2023-02-01T04:52:36;31.10;;;19.88;;
36423;SDS011;22458;45.328;9.514;2023-02-01T04:55:02;27.17;;;18.98;;
36423;SDS011;22458;45.328;9.514;2023-02-01T04:57:29;29.90;;;20.40;;
36423;SDS011;22458;45.328;9.514;2023-02-01T04:59:55;28.70;;;19.58;;
36423;SDS011;22458;45.328;9.514;2023-02-01T05:02:21;32.25;;;20.80;;
36423;SDS011;22458;45.328;9.514;2023-02-01T05:04:46;31.67;;;21.20;;
36423;SDS011;22458;45.328;9.514;2023-02-01T05:07:12;30.90;;;20.50;;
36423;SDS011;22458;45.328;9.514;2023-02-01T05:09:38;31.27;;;19.77;;
36423;SDS011;22458;45.328;9.514;2023-02-01T05:12:04;30.55;;;20.23;;
36423;SDS011;22458;45.328;9.514;2023-02-01T05:14:48;31.10;;;20.58;;
36423;SDS011;22458;45.328;9.514;2023-02-01T05:17:14;31.88;;;20.60;;
36423;SDS011;22458;45.328;9.514;2023-02-01T05:19:40;27.17;;;17.40;;
36423;SDS011;22458;45.328;9.514;2023-02-01T05:22:06;28.80;;;18.25;;
36423;SDS011;22458;45.328;9.514;2023-02-01T05:24:32;31.15;;;18.20;;
36423;SDS011;22458;45.328;9.514;2023-02-01T05:26:58;27.45;;;18.33;;
36423;SDS011;22458;45.328;9.514;2023-02-01T05:29:23;31.60;;;18.70;;
36423;SDS011;22458;45.328;9.514;2023-02-01T05:31:49;26.42;;;18.30;;
36423;SDS011;22458;45.328;9.514;2023-02-01T05:34:15;32.15;;;20.00;;
36423;SDS011;22458;45.328;9.514;2023-02-01T05:36:41;28.48;;;18.63;;
36423;SDS011;22458;45.328;9.514;2023-02-01T05:39:07;27.38;;;18.35;;
36423;SDS011;22458;45.328;9.514;2023-02-01T05:41:32;30.48;;;18.17;;
36423;SDS011;22458;45.328;9.514;2023-02-01T05:43:58;29.35;;;17.70;;
36423;SDS011;22458;45.328;9.514;2023-02-01T05:46:24;29.70;;;18.40;;
36423;SDS011;22458;45.328;9.514;2023-02-01T05:48:50;28.40;;;17.23;;
36423;SDS011;22458;45.328;9.514;2023-02-01T05:51:15;28.15;;;19.05;;
36423;SDS011;22458;45.328;9.514;2023-02-01T05:53:41;29.08;;;18.63;;
36423;SDS011;22458;45.328;9.514;2023-02-01T05:56:07;30.83;;;18.08;;
36423;SDS011;22458;45.328;9.514;2023-02-01T05:58:33;27.23;;;18.73;;
36423;SDS011;22458;45.328;9.514;2023-02-01T06:00:59;26.50;;;18.50;;
36423;SDS011;22458;45.328;9.514;2023-02-01T06:03:25;29.73;;;19.38;;
36423;SDS011;22458;45.328;9.514;2023-02-01T06:05:51;32.10;;;19.80;;
36423;SDS011;22458;45.328;9.514;2023-02-01T06:08:17;28.40;;;19.33;;
36423;SDS011;22458;45.328;9.514;2023-02-01T06:10:43;28.85;;;18.90;;
36423;SDS011;22458;45.328;9.514;2023-02-01T06:13:08;32.40;;;19.38;;
36423;SDS011;22458;45.328;9.514;2023-02-01T06:15:35;27.60;;;18.23;;
36423;SDS011;22458;45.328;9.514;2023-02-01T06:18:02;30.30;;;19.05;;
36423;SDS011;22458;45.328;9.514;2023-02-01T06:20:29;31.35;;;18.50;;
36423;SDS011;22458;45.328;9.514;2023-02-01T06:22:54;30.65;;;17.27;;
36423;SDS011;22458;45.328;9.514;2023-02-01T06:25:20;25.95;;;18.77;;
36423;SDS011;22458;45.328;9.514;2023-02-01T06:27:46;30.30;;;18.17;;
36423;SDS011;22458;45.328;9.514;2023-02-01T06:30:13;31.58;;;20.08;;
36423;SDS011;22458;45.328;9.514;2023-02-01T06:32:40;24.92;;;17.48;;
36423;SDS011;22458;45.328;9.514;2023-02-01T06:35:06;27.15;;;18.23;;
36423;SDS011;22458;45.328;9.514;2023-02-01T06:37:36;30.67;;;18.73;;
36423;SDS011;22458;45.328;9.514;2023-02-01T06:40:02;35.92;;;19.40;;
36423;SDS011;22458;45.328;9.514;2023-02-01T06:42:28;26.52;;;19.55;;
36423;SDS011;22458;45.328;9.514;2023-02-01T06:44:54;30.42;;;19.02;;
36423;SDS011;22458;45.328;9.514;2023-02-01T06:47:20;29.05;;;20.33;;
36423;SDS011;22458;45.328;9.514;2023-02-01T06:49:46;28.80;;;19.00;;
36423;SDS011;22458;45.328;9.514;2023-02-01T06:52:12;29.70;;;19.05;;
36423;SDS011;22458;45.328;9.514;2023-02-01T06:54:37;27.50;;;18.42;;
36423;SDS011;22458;45.328;9.514;2023-02-01T06:57:03;25.15;;;17.88;;
36423;SDS011;22458;45.328;9.514;2023-02-01T06:59:29;29.80;;;20.17;;
36423;SDS011;22458;45.328;9.514;2023-02-01T07:01:54;29.55;;;19.05;;
36423;SDS011;22458;45.328;9.514;2023-02-01T07:04:21;27.27;;;18.75;;
36423;SDS011;22458;45.328;9.514;2023-02-01T07:06:47;28.50;;;18.80;;
36423;SDS011;22458;45.328;9.514;2023-02-01T07:09:12;26.42;;;18.80;;
36423;SDS011;22458;45.328;9.514;2023-02-01T07:11:38;28.60;;;18.67;;
36423;SDS011;22458;45.328;9.514;2023-02-01T07:14:08;27.85;;;18.27;;
36423;SDS011;22458;45.328;9.514;2023-02-01T07:16:34;28.02;;;18.17;;
36423;SDS011;22458;45.328;9.514;2023-02-01T07:19:00;28.88;;;18.33;;
36423;SDS011;22458;45.328;9.514;2023-02-01T07:21:26;28.77;;;19.45;;
36423;SDS011;22458;45.328;9.514;2023-02-01T07:23:53;27.42;;;17.52;;
36423;SDS011;22458;45.328;9.514;2023-02-01T07:26:19;28.65;;;17.65;;
36423;SDS011;22458;45.328;9.514;2023-02-01T07:28:45;30.00;;;18.42;;
36423;SDS011;22458;45.328;9.514;2023-02-01T07:31:16;25.75;;;16.83;;
36423;SDS011;22458;45.328;9.514;2023-02-01T07:33:46;26.27;;;18.35;;
36423;SDS011;22458;45.328;9.514;2023-02-01T07:36:13;28.00;;;18.05;;
36423;SDS011;22458;45.328;9.514;2023-02-01T07:38:40;28.00;;;17.08;;
36423;SDS011;22458;45.328;9.514;2023-02-01T07:41:06;24.98;;;17.92;;
36423;SDS011;22458;45.328;9.514;2023-02-01T07:43:33;26.70;;;17.75;;
36423;SDS011;22458;45.328;9.514;2023-02-01T07:46:00;25.80;;;17.92;;
36423;SDS011;22458;45.328;9.514;2023-02-01T07:48:27;27.67;;;17.58;;
36423;SDS011;22458;45.328;9.514;2023-02-01T07:51:00;25.60;;;17.67;;
36423;SDS011;22458;45.328;9.514;2023-02-01T07:53:31;28.15;;;19.33;;
36423;SDS011;22458;45.328;9.514;2023-02-01T07:55:58;28.52;;;18.17;;
36423;SDS011;22458;45.328;9.514;2023-02-01T07:58:24;26.65;;;17.63;;
36423;SDS011;22458;45.328;9.514;2023-02-01T08:00:51;26.05;;;18.45;;
36423;SDS011;22458;45.328;9.514;2023-02-01T08:03:35;31.75;;;20.40;;
36423;SDS011;22458;45.328;9.514;2023-02-01T08:06:02;27.60;;;18.95;;
36423;SDS011;22458;45.328;9.514;2023-02-01T08:08:27;30.88;;;19.65;;
36423;SDS011;22458;45.328;9.514;2023-02-01T08:11:00;31.95;;;20.77;;
36423;SDS011;22458;45.328;9.514;2023-02-01T08:13:27;29.08;;;20.65;;
36423;SDS011;22458;45.328;9.514;2023-02-01T08:15:57;32.50;;;20.58;;
36423;SDS011;22458;45.328;9.514;2023-02-01T08:18:24;29.35;;;19.08;;
36423;SDS011;22458;45.328;9.514;2023-02-01T08:20:50;35.83;;;22.10;;
36423;SDS011;22458;45.328;9.514;2023-02-01T08:23:16;32.35;;;22.05;;
36423;SDS011;22458;45.328;9.514;2023-02-01T08:25:42;34.72;;;21.73;;
36423;SDS011;22458;45.328;9.514;2023-02-01T08:28:09;31.50;;;20.58;;
36423;SDS011;22458;45.328;9.514;2023-02-01T08:30:38;31.92;;;22.10;;
36423;SDS011;22458;45.328;9.514;2023-02-01T08:33:07;37.97;;;22.52;;
36423;SDS011;22458;45.328;9.514;2023-02-01T08:35:37;30.52;;;21.95;;
36423;SDS011;22458;45.328;9.514;2023-02-01T08:38:04;35.45;;;21.27;;
36423;SDS011;22458;45.328;9.514;2023-02-01T08:40:30;37.78;;;22.17;;
36423;SDS011;22458;45.328;9.514;2023-02-01T08:42:56;33.20;;;21.98;;
36423;SDS011;22458;45.328;9.514;2023-02-01T08:45:26;32.75;;;22.77;;
36423;SDS011;22458;45.328;9.514;2023-02-01T08:47:55;32.00;;;21.40;;
36423;SDS011;22458;45.328;9.514;2023-02-01T08:50:22;32.25;;;22.50;;
36423;SDS011;22458;45.328;9.514;2023-02-01T08:52:48;32.80;;;21.75;;
36423;SDS011;22458;45.328;9.514;2023-02-01T08:55:14;33.00;;;21.70;;
36423;SDS011;22458;45.328;9.514;2023-02-01T08:57:40;36.97;;;22.08;;
36423;SDS011;22458;45.328;9.514;2023-02-01T09:00:07;32.40;;;21.98;;
36423;SDS011;22458;45.328;9.514;2023-02-01T09:02:35;31.60;;;21.73;;
36423;SDS011;22458;45.328;9.514;2023-02-01T09:05:01;35.40;;;22.77;;
36423;SDS011;22458;45.328;9.514;2023-02-01T09:07:28;31.95;;;21.70;;
36423;SDS011;22458;45.328;9.514;2023-02-01T09:09:54;30.95;;;20.85;;
36423;SDS011;22458;45.328;9.514;2023-02-01T09:12:21;34.33;;;22.95;;
36423;SDS011;22458;45.328;9.514;2023-02-01T09:14:47;36.08;;;21.58;;
36423;SDS011;22458;45.328;9.514;2023-02-01T09:17:13;33.85;;;21.45;;
36423;SDS011;22458;45.328;9.514;2023-02-01T09:19:39;33.95;;;22.30;;
36423;SDS011;22458;45.328;9.514;2023-02-01T09:22:05;33.55;;;22.45;;
36423;SDS011;22458;45.328;9.514;2023-02-01T09:24:30;32.17;;;21.98;;
36423;SDS011;22458;45.328;9.514;2023-02-01T09:26:56;33.35;;;23.00;;
36423;SDS011;22458;45.328;9.514;2023-02-01T09:29:22;35.75;;;22.85;;
36423;SDS011;22458;45.328;9.514;2023-02-01T09:31:48;32.17;;;21.52;;
36423;SDS011;22458;45.328;9.514;2023-02-01T09:34:13;35.42;;;22.15;;
36423;SDS011;22458;45.328;9.514;2023-02-01T09:36:39;35.10;;;22.77;;
36423;SDS011;22458;45.328;9.514;2023-02-01T09:39:05;30.17;;;20.80;;
36423;SDS011;22458;45.328;9.514;2023-02-01T09:41:42;29.52;;;21.48;;
36423;SDS011;22458;45.328;9.514;2023-02-01T09:47:02;34.67;;;21.92;;
36423;SDS011;22458;45.328;9.514;2023-02-01T09:49:36;31.17;;;21.63;;
36423;SDS011;22458;45.328;9.514;2023-02-01T09:52:07;29.85;;;19.95;;
36423;SDS011;22458;45.328;9.514;2023-02-01T09:54:49;30.45;;;21.35;;
36423;SDS011;22458;45.328;9.514;2023-02-01T09:57:27;35.38;;;22.25;;
36423;SDS011;22458;45.328;9.514;2023-02-01T10:00:07;29.65;;;20.60;;
36423;SDS011;22458;45.328;9.514;2023-02-01T10:02:50;32.75;;;20.65;;
36423;SDS011;22458;45.328;9.514;2023-02-01T10:05:21;28.00;;;19.90;;
36423;SDS011;22458;45.328;9.514;2023-02-01T10:10:51;30.45;;;21.17;;
36423;SDS011;22458;45.328;9.514;2023-02-01T10:16:23;31.30;;;21.58;;
36423;SDS011;22458;45.328;9.514;2023-02-01T10:29:44;28.88;;;18.35;;
36423;SDS011;22458;45.328;9.514;2023-02-01T10:32:14;25.38;;;18.48;;
36423;SDS011;22458;45.328;9.514;2023-02-01T10:34:46;25.85;;;17.20;;
36423;SDS011;22458;45.328;9.514;2023-02-01T10:37:35;25.13;;;18.55;;
36423;SDS011;22458;45.328;9.514;2023-02-01T10:40:09;25.70;;;17.48;;
36423;SDS011;22458;45.328;9.514;2023-02-01T10:42:49;24.80;;;17.45;;
36423;SDS011;22458;45.328;9.514;2023-02-01T10:45:17;28.98;;;19.85;;
36423;SDS011;22458;45.328;9.514;2023-02-01T10:47:47;26.02;;;18.88;;
36423;SDS011;22458;45.328;9.514;2023-02-01T10:53:11;23.38;;;17.45;;
36423;SDS011;22458;45.328;9.514;2023-02-01T10:58:16;25.90;;;18.25;;
36423;SDS011;22458;45.328;9.514;2023-02-01T11:00:46;25.63;;;18.08;;
36423;SDS011;22458;45.328;9.514;2023-02-01T11:05:59;24.30;;;18.13;;
36423;SDS011;22458;45.328;9.514;2023-02-01T11:08:27;27.30;;;18.48;;
36423;SDS011;22458;45.328;9.514;2023-02-01T11:10:59;26.65;;;18.95;;
36423;SDS011;22458;45.328;9.514;2023-02-01T11:13:28;25.38;;;19.45;;
36423;SDS011;22458;45.328;9.514;2023-02-01T11:15:57;28.38;;;19.85;;
36423;SDS011;22458;45.328;9.514;2023-02-01T11:18:35;27.58;;;20.23;;
36423;SDS011;22458;45.328;9.514;2023-02-01T11:23:29;28.20;;;20.40;;
36423;SDS011;22458;45.328;9.514;2023-02-01T11:28:32;26.77;;;18.77;;
36423;SDS011;22458;45.328;9.514;2023-02-01T11:31:04;28.15;;;19.33;;
36423;SDS011;22458;45.328;9.514;2023-02-01T11:33:35;26.25;;;19.27;;
36423;SDS011;22458;45.328;9.514;2023-02-01T11:36:07;24.88;;;18.60;;
36423;SDS011;22458;45.328;9.514;2023-02-01T11:38:37;25.80;;;17.75;;
36423;SDS011;22458;45.328;9.514;2023-02-01T11:41:11;26.17;;;18.85;;
36423;SDS011;22458;45.328;9.514;2023-02-01T11:46:19;25.85;;;18.83;;
36423;SDS011;22458;45.328;9.514;2023-02-01T11:48:50;26.92;;;19.20;;
36423;SDS011;22458;45.328;9.514;2023-02-01T11:54:18;23.02;;;16.08;;
36423;SDS011;22458;45.328;9.514;2023-02-01T11:57:07;23.90;;;16.70;;
36423;SDS011;22458;45.328;9.514;2023-02-01T12:05:35;20.80;;;15.23;;
36423;SDS011;22458;45.328;9.514;2023-02-01T12:14:14;19.65;;;13.80;;
36423;SDS011;22458;45.328;9.514;2023-02-01T12:17:01;19.92;;;13.02;;
36423;SDS011;22458;45.328;9.514;2023-02-01T12:32:49;13.38;;;8.77;;
36423;SDS011;22458;45.328;9.514;2023-02-01T12:35:41;10.45;;;6.40;;
36423;SDS011;22458;45.328;9.514;2023-02-01T12:41:03;9.68;;;5.93;;
36423;SDS011;22458;45.328;9.514;2023-02-01T12:44:00;9.73;;;6.20;;
36423;SDS011;22458;45.328;9.514;2023-02-01T12:46:53;11.70;;;7.13;;
36423;SDS011;22458;45.328;9.514;2023-02-01T12:49:48;8.27;;;5.45;;
36423;SDS011;22458;45.328;9.514;2023-02-01T12:52:38;8.30;;;5.45;;
36423;SDS011;22458;45.328;9.514;2023-02-01T12:55:23;8.85;;;5.07;;
36423;SDS011;22458;45.328;9.514;2023-02-01T12:58:01;9.00;;;5.85;;
36423;SDS011;22458;45.328;9.514;2023-02-01T13:00:44;7.93;;;5.32;;
36423;SDS011;22458;45.328;9.514;2023-02-01T13:03:29;8.00;;;5.25;;
36423;SDS011;22458;45.328;9.514;2023-02-01T13:06:06;7.45;;;4.10;;
36423;SDS011;22458;45.328;9.514;2023-02-01T13:09:56;6.47;;;4.57;;
36423;SDS011;22458;45.328;9.514;2023-02-01T13:11:57;7.22;;;5.13;;
36423;SDS011;22458;45.328;9.514;2023-02-01T13:14:32;8.45;;;4.72;;
36423;SDS011;22458;45.328;9.514;2023-02-01T13:17:12;7.07;;;3.78;;
36423;SDS011;22458;45.328;9.514;2023-02-01T13:22:10;7.20;;;4.32;;
36423;SDS011;22458;45.328;9.514;2023-02-01T13:24:46;6.78;;;4.63;;
36423;SDS011;22458;45.328;9.514;2023-02-01T13:27:16;8.77;;;3.95;;
36423;SDS011;22458;45.328;9.514;2023-02-01T13:37:43;9.18;;;4.07;;
36423;SDS011;22458;45.328;9.514;2023-02-01T13:43:16;6.75;;;3.45;;
36423;SDS011;22458;45.328;9.514;2023-02-01T13:45:49;9.10;;;3.60;;
36423;SDS011;22458;45.328;9.514;2023-02-01T13:48:27;7.18;;;3.13;;
36423;SDS011;22458;45.328;9.514;2023-02-01T13:51:11;7.85;;;3.22;;
36423;SDS011;22458;45.328;9.514;2023-02-01T13:53:43;7.80;;;3.33;;
36423;SDS011;22458;45.328;9.514;2023-02-01T13:56:17;10.98;;;4.10;;
36423;SDS011;22458;45.328;9.514;2023-02-01T13:58:46;4.40;;;3.00;;
36423;SDS011;22458;45.328;9.514;2023-02-01T14:03:54;4.15;;;3.10;;
36423;SDS011;22458;45.328;9.514;2023-02-01T14:11:51;5.40;;;2.75;;
36423;SDS011;22458;45.328;9.514;2023-02-01T14:19:23;6.85;;;3.10;;
36423;SDS011;22458;45.328;9.514;2023-02-01T14:21:54;5.60;;;2.80;;
36423;SDS011;22458;45.328;9.514;2023-02-01T14:24:30;7.68;;;3.08;;
36423;SDS011;22458;45.328;9.514;2023-02-01T14:27:01;8.50;;;2.83;;
36423;SDS011;22458;45.328;9.514;2023-02-01T14:29:37;6.68;;;2.95;;
36423;SDS011;22458;45.328;9.514;2023-02-01T14:32:11;4.00;;;2.85;;
36423;SDS011;22458;45.328;9.514;2023-02-01T14:50:50;5.68;;;3.10;;
36423;SDS011;22458;45.328;9.514;2023-02-01T14:53:16;7.60;;;2.97;;
36423;SDS011;22458;45.328;9.514;2023-02-01T14:55:53;4.10;;;3.33;;
36423;SDS011;22458;45.328;9.514;2023-02-01T15:09:26;5.20;;;2.70;;
36423;SDS011;22458;45.328;9.514;2023-02-01T15:12:23;6.50;;;3.28;;
36423;SDS011;22458;45.328;9.514;2023-02-01T15:15:17;5.68;;;2.63;;
36423;SDS011;22458;45.328;9.514;2023-02-01T15:17:55;7.45;;;3.25;;
36423;SDS011;22458;45.328;9.514;2023-02-01T15:20:26;5.78;;;3.10;;
36423;SDS011;22458;45.328;9.514;2023-02-01T15:22:54;6.75;;;2.95;;
36423;SDS011;22458;45.328;9.514;2023-02-01T15:27:55;3.55;;;2.38;;
36423;SDS011;22458;45.328;9.514;2023-02-01T15:30:23;5.88;;;2.85;;
36423;SDS011;22458;45.328;9.514;2023-02-01T15:32:52;4.63;;;2.35;;
36423;SDS011;22458;45.328;9.514;2023-02-01T15:35:35;4.13;;;2.30;;
36423;SDS011;22458;45.328;9.514;2023-02-01T15:40:53;6.10;;;2.88;;
36423;SDS011;22458;45.328;9.514;2023-02-01T15:43:24;5.22;;;2.47;;
36423;SDS011;22458;45.328;9.514;2023-02-01T15:45:50;5.88;;;2.72;;
36423;SDS011;22458;45.328;9.514;2023-02-01T15:48:22;5.15;;;2.70;;
36423;SDS011;22458;45.328;9.514;2023-02-01T15:50:50;5.97;;;2.78;;
36423;SDS011;22458;45.328;9.514;2023-02-01T15:53:19;6.38;;;2.67;;
36423;SDS011;22458;45.328;9.514;2023-02-01T15:55:51;5.55;;;2.53;;
36423;SDS011;22458;45.328;9.514;2023-02-01T15:58:19;5.65;;;2.67;;
36423;SDS011;22458;45.328;9.514;2023-02-01T16:00:53;6.55;;;2.90;;
36423;SDS011;22458;45.328;9.514;2023-02-01T16:03:39;6.38;;;3.00;;
36423;SDS011;22458;45.328;9.514;2023-02-01T16:06:50;7.65;;;3.05;;
36423;SDS011;22458;45.328;9.514;2023-02-01T16:13:56;4.15;;;2.85;;
36423;SDS011;22458;45.328;9.514;2023-02-01T16:16:26;4.20;;;2.28;;
36423;SDS011;22458;45.328;9.514;2023-02-01T16:18:53;4.80;;;3.17;;
36423;SDS011;22458;45.328;9.514;2023-02-01T16:21:19;5.07;;;2.80;;
36423;SDS011;22458;45.328;9.514;2023-02-01T16:23:52;7.50;;;2.97;;
36423;SDS011;22458;45.328;9.514;2023-02-01T16:26:18;3.92;;;2.88;;
36423;SDS011;22458;45.328;9.514;2023-02-01T16:28:44;8.20;;;3.60;;
36423;SDS011;22458;45.328;9.514;2023-02-01T16:31:14;6.60;;;2.92;;
36423;SDS011;22458;45.328;9.514;2023-02-01T16:33:46;8.68;;;3.38;;
36423;SDS011;22458;45.328;9.514;2023-02-01T16:36:13;7.90;;;4.73;;
36423;SDS011;22458;45.328;9.514;2023-02-01T16:38:39;5.82;;;3.92;;
36423;SDS011;22458;45.328;9.514;2023-02-01T16:41:05;8.50;;;3.40;;
36423;SDS011;22458;45.328;9.514;2023-02-01T16:43:31;4.70;;;3.30;;
36423;SDS011;22458;45.328;9.514;2023-02-01T16:45:58;5.80;;;3.05;;
36423;SDS011;22458;45.328;9.514;2023-02-01T16:48:33;8.82;;;4.63;;
36423;SDS011;22458;45.328;9.514;2023-02-01T16:51:07;6.50;;;2.65;;
36423;SDS011;22458;45.328;9.514;2023-02-01T16:53:36;4.75;;;2.42;;
36423;SDS011;22458;45.328;9.514;2023-02-01T16:56:12;4.47;;;2.05;;
36423;SDS011;22458;45.328;9.514;2023-02-01T16:58:39;5.22;;;1.95;;
36423;SDS011;22458;45.328;9.514;2023-02-01T17:01:06;5.13;;;2.10;;
36423;SDS011;22458;45.328;9.514;2023-02-01T17:03:32;7.03;;;3.00;;
36423;SDS011;22458;45.328;9.514;2023-02-01T17:05:57;5.90;;;2.10;;
36423;SDS011;22458;45.328;9.514;2023-02-01T17:08:27;4.53;;;2.72;;
36423;SDS011;22458;45.328;9.514;2023-02-01T17:10:54;6.60;;;2.72;;
36423;SDS011;22458;45.328;9.514;2023-02-01T17:13:20;5.20;;;2.22;;
36423;SDS011;22458;45.328;9.514;2023-02-01T17:15:50;5.72;;;1.50;;
36423;SDS011;22458;45.328;9.514;2023-02-01T17:18:29;3.53;;;1.75;;
36423;SDS011;22458;45.328;9.514;2023-02-01T17:23:25;3.38;;;2.35;;
36423;SDS011;22458;45.328;9.514;2023-02-01T17:28:19;8.10;;;3.05;;
36423;SDS011;22458;45.328;9.514;2023-02-01T17:30:45;8.82;;;2.95;;
36423;SDS011;22458;45.328;9.514;2023-02-01T17:35:45;3.92;;;2.45;;
36423;SDS011;22458;45.328;9.514;2023-02-01T17:38:12;4.18;;;2.60;;
36423;SDS011;22458;45.328;9.514;2023-02-01T17:40:38;5.57;;;2.60;;
36423;SDS011;22458;45.328;9.514;2023-02-01T17:43:04;5.53;;;2.83;;
36423;SDS011;22458;45.328;9.514;2023-02-01T17:45:36;8.75;;;3.72;;
36423;SDS011;22458;45.328;9.514;2023-02-01T17:48:05;5.97;;;3.17;;
36423;SDS011;22458;45.328;9.514;2023-02-01T17:50:32;6.30;;;2.83;;